createdAt,value
2023-07-12T00:01:13.398Z,99064.97
2023-07-12T00:03:40.397Z,99051.50
2023-07-12T00:06:12.961Z,99057.78
2023-07-12T00:08:39.683Z,99055.38
2023-07-12T00:11:06.713Z,99053.00
2023-07-12T00:13:33.561Z,99055.00
2023-07-12T00:16:00.609Z,99041.84
2023-07-12T00:18:28.745Z,99047.69
2023-07-12T00:20:55.837Z,99058.69
2023-07-12T00:23:22.597Z,99063.59
2023-07-12T00:25:50.306Z,99062.72
2023-07-12T00:28:23.162Z,99060.00
2023-07-12T00:30:51.054Z,99060.66
2023-07-12T00:33:18.658Z,99075.91
2023-07-12T00:35:47.840Z,99076.41
2023-07-12T00:38:17.290Z,99078.31
2023-07-12T00:41:01.918Z,99070.56
2023-07-12T00:43:37.297Z,99077.88
2023-07-12T00:46:12.155Z,99080.94
2023-07-12T00:48:38.852Z,99076.47
2023-07-12T00:51:29.033Z,99067.88
2023-07-12T00:53:55.915Z,99085.25
2023-07-12T00:56:23.413Z,99071.66
2023-07-12T00:58:54.264Z,99073.63
2023-07-12T01:01:21.274Z,99061.06
2023-07-12T01:03:49.373Z,99047.47
2023-07-12T01:06:19.160Z,99041.84
2023-07-12T01:08:46.166Z,99041.41
2023-07-12T01:11:16.473Z,99042.44
2023-07-12T01:13:44.987Z,99054.59
2023-07-12T01:16:14.244Z,99052.69
2023-07-12T01:18:41.057Z,99064.75
2023-07-12T01:21:12.398Z,99092.47
2023-07-12T01:23:40.712Z,99090.28
2023-07-12T01:26:24.447Z,99086.66
2023-07-12T01:28:53.863Z,99086.25
2023-07-12T01:31:21.195Z,99055.88
2023-07-12T01:33:47.932Z,99054.75
2023-07-12T01:36:16.169Z,99086.88
2023-07-12T01:38:43.051Z,99100.91
2023-07-12T01:41:10.299Z,99096.31
2023-07-12T01:43:37.235Z,99088.78
2023-07-12T01:46:04.333Z,99103.38
2023-07-12T01:48:30.971Z,99098.69
2023-07-12T01:50:57.707Z,99107.00
2023-07-12T01:53:26.072Z,99103.00
2023-07-12T01:55:52.705Z,99120.09
2023-07-12T01:58:19.345Z,99122.31
2023-07-12T02:00:46.180Z,99112.94
2023-07-12T02:03:12.920Z,99098.06
2023-07-12T02:05:39.595Z,99112.44
2023-07-12T02:08:06.528Z,99122.00
2023-07-12T02:10:34.856Z,99125.31
2023-07-12T02:13:01.730Z,99134.66
2023-07-12T02:15:28.681Z,99145.59
2023-07-12T02:17:55.597Z,99118.88
2023-07-12T02:20:22.612Z,99118.22
2023-07-12T02:22:50.997Z,99117.31
2023-07-12T02:25:19.352Z,99125.84
2023-07-12T02:27:48.135Z,99131.94
2023-07-12T02:30:16.862Z,99147.69
2023-07-12T02:32:43.829Z,99162.81
2023-07-12T02:35:10.833Z,99158.53
2023-07-12T02:37:37.874Z,99182.69
2023-07-12T02:40:06.705Z,99173.06
2023-07-12T02:42:34.377Z,99178.38
2023-07-12T02:45:02.388Z,99207.41
2023-07-12T02:47:29.048Z,99200.19
2023-07-12T02:49:55.684Z,99198.41
2023-07-12T02:52:22.488Z,99199.59
2023-07-12T02:54:49.076Z,99182.66
2023-07-12T02:57:16.852Z,99173.31
2023-07-12T02:59:45.021Z,99171.13
2023-07-12T03:02:14.236Z,99192.88
2023-07-12T03:04:41.213Z,99224.09
2023-07-12T03:07:07.887Z,99251.38
2023-07-12T03:09:34.687Z,99269.41
2023-07-12T03:12:01.651Z,99246.31
2023-07-12T03:14:28.912Z,99244.06
2023-07-12T03:16:55.747Z,99221.59
2023-07-12T03:19:24.246Z,99246.53
2023-07-12T03:21:51.014Z,99216.13
2023-07-12T03:24:17.766Z,99229.56
2023-07-12T03:26:44.384Z,99225.09
2023-07-12T03:29:10.966Z,99236.69
2023-07-12T03:31:37.913Z,99240.28
2023-07-12T03:34:04.780Z,99235.97
2023-07-12T03:36:32.899Z,99241.81
2023-07-12T03:39:00.474Z,99227.84
2023-07-12T03:41:27.730Z,99208.69
2023-07-12T03:43:54.438Z,99214.19
2023-07-12T03:46:21.235Z,99221.13
2023-07-12T03:48:48.030Z,99218.16
2023-07-12T03:51:15.404Z,99213.38
2023-07-12T03:53:43.377Z,99212.31
2023-07-12T03:56:10.910Z,99202.47
2023-07-12T03:58:41.764Z,99200.53
2023-07-12T04:01:13.902Z,99192.06
2023-07-12T04:03:43.025Z,99194.81
2023-07-12T04:06:11.127Z,99198.97
2023-07-12T04:08:37.850Z,99198.78
2023-07-12T04:11:06.536Z,99211.75
2023-07-12T04:13:33.688Z,99191.88
2023-07-12T04:16:01.953Z,99184.13
2023-07-12T04:18:29.493Z,99200.88
2023-07-12T04:21:02.830Z,99187.22
2023-07-12T04:23:29.442Z,99186.25
2023-07-12T04:26:00.138Z,99209.88
2023-07-12T04:28:28.956Z,99208.13
2023-07-12T04:30:55.930Z,99208.63
2023-07-12T04:33:22.952Z,99196.41
2023-07-12T04:35:49.564Z,99206.72
2023-07-12T04:38:16.204Z,99206.19
2023-07-12T04:40:42.819Z,99217.25
2023-07-12T04:43:09.414Z,99206.16
2023-07-12T04:45:39.822Z,99206.00
2023-07-12T04:48:06.778Z,99215.03
2023-07-12T04:50:33.414Z,99214.91
2023-07-12T04:53:00.086Z,99218.19
2023-07-12T04:55:28.224Z,99221.41
2023-07-12T04:57:55.153Z,99217.94
2023-07-12T05:00:22.020Z,99222.19
2023-07-12T05:02:50.106Z,99230.16
2023-07-12T05:05:17.368Z,99231.41
2023-07-12T05:07:44.220Z,99225.75
2023-07-12T05:10:11.655Z,99235.28
2023-07-12T05:12:39.584Z,99234.19
2023-07-12T05:15:07.839Z,99239.19
2023-07-12T05:17:35.003Z,99240.69
2023-07-12T05:20:03.662Z,99240.75
2023-07-12T05:22:30.332Z,99245.25
2023-07-12T05:24:57.886Z,99256.91
2023-07-12T05:27:24.920Z,99256.03
2023-07-12T05:29:51.577Z,99251.31
2023-07-12T05:32:18.531Z,99259.81
2023-07-12T05:34:45.261Z,99269.09
2023-07-12T05:37:17.010Z,99264.59
2023-07-12T05:39:43.871Z,99279.22
2023-07-12T05:42:10.475Z,99277.44
2023-07-12T05:44:37.375Z,99289.19
2023-07-12T05:47:04.452Z,99284.28
2023-07-12T05:49:31.386Z,99283.09
2023-07-12T05:51:58.197Z,99292.25
2023-07-12T05:54:26.342Z,99292.25
2023-07-12T05:56:52.900Z,99305.44
2023-07-12T05:59:19.608Z,99301.53
2023-07-12T06:01:46.117Z,99300.94
2023-07-12T06:04:12.867Z,99305.63
2023-07-12T06:06:39.704Z,99328.50
2023-07-12T06:09:06.875Z,99323.13
2023-07-12T06:11:34.796Z,99327.13
2023-07-12T06:14:01.418Z,99325.75
2023-07-12T06:16:28.241Z,99315.19
2023-07-12T06:18:54.991Z,99318.47
2023-07-12T06:21:21.709Z,99326.75
2023-07-12T06:23:48.386Z,99331.28
2023-07-12T06:26:15.006Z,99325.75
2023-07-12T06:28:43.065Z,99316.84
2023-07-12T06:31:10.029Z,99317.66
2023-07-12T06:33:36.895Z,99324.84
2023-07-12T06:36:03.929Z,99322.59
2023-07-12T06:38:31.375Z,99338.78
2023-07-12T06:40:58.018Z,99333.50
2023-07-12T06:43:24.674Z,99334.44
2023-07-12T06:45:52.688Z,99350.34
2023-07-12T06:48:19.284Z,99342.56
2023-07-12T06:50:45.917Z,99327.84
2023-07-12T06:53:12.769Z,99335.09
2023-07-12T06:55:43.243Z,99339.41
2023-07-12T06:58:09.958Z,99341.34
2023-07-12T07:00:38.953Z,99333.56
2023-07-12T07:03:07.364Z,99326.72
2023-07-12T07:05:34.030Z,99335.69
2023-07-12T07:08:00.694Z,99319.72
2023-07-12T07:10:27.639Z,99324.69
2023-07-12T07:12:54.373Z,99326.53
2023-07-12T07:15:21.032Z,99331.06
2023-07-12T07:17:47.687Z,99319.31
2023-07-12T07:20:15.957Z,99319.16
2023-07-12T07:22:42.571Z,99344.03
2023-07-12T07:25:16.102Z,99345.03
2023-07-12T07:27:47.735Z,99339.63
2023-07-12T07:30:14.872Z,99351.78
2023-07-12T07:32:41.927Z,99351.91
2023-07-12T07:35:08.835Z,99356.78
2023-07-12T07:37:36.884Z,99353.84
2023-07-12T07:40:04.021Z,99352.75
2023-07-12T07:42:30.689Z,99355.28
2023-07-12T07:44:57.373Z,99347.47
2023-07-12T07:47:24.187Z,99353.81
2023-07-12T07:49:50.828Z,99363.22
2023-07-12T07:52:17.508Z,99363.16
2023-07-12T07:54:47.305Z,99357.53
2023-07-12T07:57:13.915Z,99356.16
2023-07-12T07:59:40.657Z,99355.03
2023-07-12T08:02:10.496Z,99356.59
2023-07-12T08:04:37.234Z,99354.00
2023-07-12T08:07:04.530Z,99351.66
2023-07-12T08:09:31.247Z,99356.25
2023-07-12T08:11:59.233Z,99347.59
2023-07-12T08:14:25.847Z,99347.47
2023-07-12T08:16:52.419Z,99340.38
2023-07-12T08:19:19.442Z,99341.13
2023-07-12T08:21:46.217Z,99344.78
2023-07-12T08:24:12.927Z,99344.56
2023-07-12T08:26:43.566Z,99339.44
2023-07-12T08:29:16.716Z,99345.88
2023-07-12T08:31:43.379Z,99354.25
2023-07-12T08:34:10.029Z,99358.34
2023-07-12T08:36:36.675Z,99350.69
2023-07-12T08:39:03.399Z,99349.38
2023-07-12T08:41:30.027Z,99365.75
2023-07-12T08:43:56.828Z,99352.41
2023-07-12T08:46:26.951Z,99345.63
2023-07-12T08:48:58.429Z,99349.84
2023-07-12T08:51:28.368Z,99359.69
2023-07-12T08:53:55.623Z,99360.00
2023-07-12T08:56:22.408Z,99365.66
2023-07-12T08:58:50.420Z,99372.19
2023-07-12T09:01:39.716Z,99370.38
2023-07-12T09:04:24.464Z,99374.34
2023-07-12T09:06:52.088Z,99378.66
2023-07-12T09:09:18.881Z,99376.53
2023-07-12T09:11:45.837Z,99382.03
2023-07-12T09:14:15.982Z,99382.69
2023-07-12T09:16:45.389Z,99381.88
2023-07-12T09:19:22.108Z,99387.13
2023-07-12T09:21:54.452Z,99374.75
2023-07-12T09:24:23.500Z,99390.19
2023-07-12T09:26:50.730Z,99388.22
2023-07-12T09:29:22.089Z,99388.53
2023-07-12T09:31:49.344Z,99394.63
2023-07-12T09:34:21.087Z,99402.78
2023-07-12T09:36:56.962Z,99383.38
2023-07-12T09:39:24.042Z,99407.06
2023-07-12T09:41:54.680Z,99396.13
2023-07-12T09:44:21.992Z,99405.34
2023-07-12T09:46:52.834Z,99401.72
2023-07-12T09:49:22.822Z,99391.13
2023-07-12T09:52:02.874Z,99393.09
2023-07-12T09:54:44.133Z,99401.31
2023-07-12T09:57:17.257Z,99407.91
2023-07-12T09:59:55.719Z,99419.75
2023-07-12T10:02:37.495Z,99415.88
2023-07-12T10:05:09.716Z,99405.25
2023-07-12T10:07:49.380Z,99408.03
2023-07-12T10:10:24.894Z,99404.34
2023-07-12T10:13:04.295Z,99416.28
2023-07-12T10:15:38.758Z,99422.34
2023-07-12T10:18:06.946Z,99414.84
2023-07-12T10:20:33.946Z,99425.50
2023-07-12T10:23:04.712Z,99413.31
2023-07-12T10:25:35.567Z,99426.41
2023-07-12T10:28:10.937Z,99427.22
2023-07-12T10:30:39.524Z,99424.44
2023-07-12T10:33:15.459Z,99417.13
2023-07-12T10:35:46.824Z,99419.13
2023-07-12T10:38:16.866Z,99414.13
2023-07-12T10:40:49.737Z,99420.66
2023-07-12T10:43:22.754Z,99418.31
2023-07-12T10:45:52.798Z,99417.09
2023-07-12T10:48:25.025Z,99426.06
2023-07-12T10:50:54.776Z,99422.44
2023-07-12T10:53:35.486Z,99422.13
2023-07-12T10:56:17.993Z,99425.13
2023-07-12T10:58:50.706Z,99421.06
2023-07-12T11:01:37.471Z,99422.66
2023-07-12T11:04:09.289Z,99415.41
2023-07-12T11:06:36.441Z,99421.47
2023-07-12T11:09:09.493Z,99425.31
2023-07-12T11:11:49.199Z,99421.13
2023-07-12T11:14:44.187Z,99442.66
2023-07-12T11:17:20.663Z,99424.22
2023-07-12T11:20:07.939Z,99430.50
2023-07-12T11:22:55.967Z,99418.19
2023-07-12T11:25:27.552Z,99422.16
2023-07-12T11:27:57.196Z,99421.75
2023-07-12T11:30:37.675Z,99422.88
2023-07-12T11:33:15.733Z,99420.66
2023-07-12T11:35:45.581Z,99425.03
2023-07-12T11:38:19.917Z,99419.50
2023-07-12T11:43:38.848Z,99423.09
2023-07-12T11:46:15.354Z,99415.88
2023-07-12T11:48:46.403Z,99420.78
2023-07-12T11:51:29.067Z,99424.09
2023-07-12T11:53:58.055Z,99409.81
2023-07-12T11:56:26.138Z,99411.03
2023-07-12T11:58:53.484Z,99414.78
2023-07-12T12:01:21.215Z,99416.22
2023-07-12T12:03:52.255Z,99414.72
2023-07-12T12:06:20.170Z,99421.00
2023-07-12T12:08:51.790Z,99430.50
2023-07-12T12:11:18.559Z,99405.09
2023-07-12T12:13:54.718Z,99408.75
2023-07-12T12:16:27.170Z,99421.44
2023-07-12T12:18:56.578Z,99420.56
2023-07-12T12:21:37.681Z,99409.63
2023-07-12T12:24:16.824Z,99415.94
2023-07-12T12:26:51.602Z,99406.47
2023-07-12T12:29:22.940Z,99424.53
2023-07-12T12:31:56.219Z,99418.72
2023-07-12T12:34:27.904Z,99421.16
2023-07-12T12:36:59.296Z,99425.47
2023-07-12T12:39:26.085Z,99418.50
2023-07-12T12:41:54.382Z,99429.50
2023-07-12T12:44:27.349Z,99411.56
2023-07-12T12:54:30.278Z,99399.47
2023-07-12T12:58:09.413Z,99404.94
2023-07-12T13:01:01.060Z,99409.41
2023-07-12T13:05:28.648Z,99404.97
2023-07-12T13:11:44.923Z,99409.94
2023-07-12T13:18:27.625Z,99410.09
2023-07-12T13:21:03.260Z,99392.16
2023-07-12T13:25:59.581Z,99389.41
2023-07-12T13:28:26.546Z,99401.56
2023-07-12T13:30:54.590Z,99399.16
2023-07-12T13:33:21.182Z,99393.00
2023-07-12T13:42:41.829Z,99399.28
2023-07-12T13:46:12.606Z,99407.41
2023-07-12T13:48:40.063Z,99399.81
2023-07-12T13:51:16.925Z,99402.44
2023-07-12T13:53:43.508Z,99398.53
2023-07-12T13:56:45.788Z,99411.78
2023-07-12T14:04:23.330Z,99407.06
2023-07-12T14:09:20.233Z,99406.00
2023-07-12T14:11:47.295Z,99404.03
2023-07-12T14:14:14.495Z,99408.69
2023-07-12T14:16:42.666Z,99412.41
2023-07-12T14:19:09.473Z,99411.59
2023-07-12T14:21:36.675Z,99408.75
2023-07-12T14:24:03.764Z,99405.09
2023-07-12T14:26:30.557Z,99399.16
2023-07-12T14:28:59.929Z,99391.94
2023-07-12T14:31:27.757Z,99398.81
2023-07-12T14:33:55.809Z,99393.84
2023-07-12T14:36:24.368Z,99382.56
2023-07-12T14:38:51.318Z,99382.09
2023-07-12T14:41:20.920Z,99392.84
2023-07-12T14:43:48.455Z,99404.97
2023-07-12T14:46:17.189Z,99420.50
2023-07-12T14:48:44.214Z,99428.31
2023-07-12T14:51:18.709Z,99403.75
2023-07-12T14:53:45.605Z,99411.66
2023-07-12T14:56:12.358Z,99405.09
2023-07-12T14:58:39.112Z,99404.16
2023-07-12T15:01:10.767Z,99417.88
2023-07-12T15:03:37.421Z,99397.66
2023-07-12T15:06:04.491Z,99411.75
2023-07-12T15:08:33.426Z,99373.00
2023-07-12T15:11:01.951Z,99379.66
2023-07-12T15:13:28.824Z,99374.34
2023-07-12T15:15:55.465Z,99375.38
2023-07-12T15:18:24.625Z,99378.00
2023-07-12T15:20:54.331Z,99367.78
2023-07-12T15:23:23.075Z,99382.63
2023-07-12T15:25:52.828Z,99374.13
2023-07-12T15:28:19.484Z,99362.66
2023-07-12T15:30:47.162Z,99354.53
2023-07-12T15:33:20.308Z,99356.03
2023-07-12T15:35:47.925Z,99372.06
2023-07-12T15:38:14.785Z,99356.91
2023-07-12T15:40:56.888Z,99359.41
2023-07-12T15:43:27.430Z,99356.47
2023-07-12T15:45:55.105Z,99347.06
2023-07-12T15:48:23.619Z,99349.44
2023-07-12T15:50:52.920Z,99353.88
2023-07-12T15:53:22.230Z,99351.66
2023-07-12T15:55:50.254Z,99348.22
2023-07-12T15:58:21.242Z,99346.72
2023-07-12T16:00:49.948Z,99344.91
2023-07-12T16:03:18.636Z,99346.84
2023-07-12T16:05:45.561Z,99343.44
2023-07-12T16:08:12.316Z,99333.97
2023-07-12T16:10:38.930Z,99340.28
2023-07-12T16:13:06.072Z,99336.31
2023-07-12T16:15:34.097Z,99339.56
2023-07-12T16:18:00.777Z,99345.78
2023-07-12T16:20:27.784Z,99348.09
2023-07-12T16:22:54.596Z,99348.31
2023-07-12T16:25:21.389Z,99348.84
2023-07-12T16:27:48.171Z,99354.16
2023-07-12T16:30:17.383Z,99340.94
2023-07-12T16:32:46.806Z,99355.78
2023-07-12T16:35:18.956Z,99358.19
2023-07-12T16:37:46.099Z,99357.97
2023-07-12T16:40:12.859Z,99352.91
2023-07-12T16:42:40.034Z,99352.78
2023-07-12T16:45:24.668Z,99364.25
2023-07-12T16:47:54.848Z,99361.28
2023-07-12T16:50:21.719Z,99360.00
2023-07-12T16:52:48.332Z,99377.03
2023-07-12T16:55:20.782Z,99375.09
2023-07-12T16:57:47.408Z,99369.28
2023-07-12T17:00:14.774Z,99365.84
2023-07-12T17:02:44.229Z,99379.78
2023-07-12T17:05:16.868Z,99362.84
2023-07-12T17:07:43.758Z,99367.97
2023-07-12T17:10:10.857Z,99370.13
2023-07-12T17:12:37.602Z,99373.78
2023-07-12T17:15:04.824Z,99372.69
2023-07-12T17:17:31.476Z,99371.81
2023-07-12T17:19:58.253Z,99377.63
2023-07-12T17:22:26.762Z,99378.28
2023-07-12T17:24:53.559Z,99372.06
2023-07-12T17:27:20.837Z,99383.47
2023-07-12T17:29:48.088Z,99382.81
2023-07-12T17:32:17.153Z,99379.97
2023-07-12T17:34:46.187Z,99386.84
2023-07-12T17:37:14.928Z,99391.97
2023-07-12T17:39:44.073Z,99391.94
2023-07-12T17:42:17.452Z,99395.81
2023-07-12T17:44:48.509Z,99392.63
2023-07-12T17:47:18.687Z,99393.13
2023-07-12T17:49:46.473Z,99396.09
2023-07-12T17:52:15.905Z,99386.25
2023-07-12T17:54:45.770Z,99397.78
2023-07-12T17:57:13.068Z,99393.78
2023-07-12T17:59:41.249Z,99390.09
2023-07-12T18:02:22.363Z,99390.03
2023-07-12T18:04:49.001Z,99402.19
2023-07-12T18:07:21.745Z,99396.16
2023-07-12T18:09:53.681Z,99400.66
2023-07-12T18:12:22.030Z,99400.38
2023-07-12T18:14:50.629Z,99408.50
2023-07-12T18:17:20.095Z,99408.44
2023-07-12T18:19:47.370Z,99405.69
2023-07-12T18:22:15.943Z,99405.59
2023-07-12T18:24:43.904Z,99409.25
2023-07-12T18:27:18.062Z,99414.84
2023-07-12T18:29:45.590Z,99422.72
2023-07-12T18:32:15.825Z,99424.03
2023-07-12T18:34:42.650Z,99425.69
2023-07-12T18:37:14.209Z,99421.50
2023-07-12T18:39:42.809Z,99419.69
2023-07-12T18:42:17.636Z,99427.22
2023-07-12T18:44:44.656Z,99426.03
2023-07-12T18:47:11.293Z,99440.19
2023-07-12T18:49:38.076Z,99436.47
2023-07-12T18:52:11.302Z,99434.47
2023-07-12T18:54:37.926Z,99436.50
2023-07-12T18:57:05.252Z,99432.34
2023-07-12T18:59:33.257Z,99438.41
2023-07-12T19:02:00.359Z,99446.75
2023-07-12T19:04:27.033Z,99443.75
2023-07-12T19:06:55.157Z,99451.34
2023-07-12T19:09:21.715Z,99444.16
2023-07-12T19:11:48.347Z,99446.06
2023-07-12T19:14:18.456Z,99451.75
2023-07-12T19:16:47.112Z,99445.72
2023-07-12T19:19:14.501Z,99454.16
2023-07-12T19:21:43.663Z,99459.34
2023-07-12T19:24:10.709Z,99459.25
2023-07-12T19:26:38.060Z,99455.31
2023-07-12T19:29:04.946Z,99469.38
2023-07-12T19:31:35.500Z,99467.44
2023-07-12T19:34:03.514Z,99472.16
2023-07-12T19:36:32.404Z,99474.41
2023-07-12T19:39:00.554Z,99474.72
2023-07-12T19:41:31.630Z,99479.97
2023-07-12T19:43:58.347Z,99478.56
2023-07-12T19:46:25.154Z,99477.66
2023-07-12T19:49:25.324Z,99477.81
2023-07-12T19:51:57.098Z,99483.56
2023-07-12T19:54:23.942Z,99495.41
2023-07-12T19:56:50.557Z,99482.16
2023-07-12T19:59:17.360Z,99491.81
2023-07-12T20:01:44.050Z,99485.13
2023-07-12T20:04:10.667Z,99501.41
2023-07-12T20:06:37.768Z,99493.69
2023-07-12T20:09:07.076Z,99504.31
2023-07-12T20:11:34.428Z,99499.47
2023-07-12T20:14:01.443Z,99504.56
2023-07-12T20:16:29.531Z,99504.00
2023-07-12T20:18:57.130Z,99506.63
2023-07-12T20:21:24.074Z,99503.91
2023-07-12T20:23:50.804Z,99510.16
2023-07-12T20:26:19.374Z,99519.38
2023-07-12T20:28:46.449Z,99517.84
2023-07-12T20:31:15.825Z,99524.25
2023-07-12T20:33:42.831Z,99532.03
2023-07-12T20:36:11.095Z,99529.47
2023-07-12T20:38:37.951Z,99530.84
2023-07-12T20:41:04.825Z,99530.69
2023-07-12T20:43:33.146Z,99537.63
2023-07-12T20:46:01.703Z,99537.63
2023-07-12T20:48:30.779Z,99535.88
2023-07-12T20:50:58.066Z,99538.69
2023-07-12T20:53:24.720Z,99541.56
2023-07-12T20:55:53.185Z,99538.78
2023-07-12T20:58:20.346Z,99534.28
2023-07-12T21:00:48.540Z,99536.88
2023-07-12T21:03:16.065Z,99548.94
2023-07-12T21:05:43.084Z,99544.78
2023-07-12T21:08:12.203Z,99547.66
2023-07-12T21:10:39.050Z,99547.34
2023-07-12T21:13:05.833Z,99552.84
2023-07-12T21:15:32.552Z,99550.78
2023-07-12T21:18:00.556Z,99556.75
2023-07-12T21:20:27.363Z,99565.84
2023-07-12T21:22:54.119Z,99563.63
2023-07-12T21:25:20.772Z,99566.47
2023-07-12T21:27:47.603Z,99567.53
2023-07-12T21:30:14.937Z,99562.53
2023-07-12T21:32:41.611Z,99566.00
2023-07-12T21:35:10.153Z,99568.63
2023-07-12T21:37:36.729Z,99572.91
2023-07-12T21:40:03.947Z,99572.75
2023-07-12T21:42:30.608Z,99583.97
2023-07-12T21:44:57.170Z,99572.72
2023-07-12T21:47:23.946Z,99584.44
2023-07-12T21:49:50.541Z,99589.84
2023-07-12T21:52:18.563Z,99588.44
2023-07-12T21:54:45.238Z,99587.06
2023-07-12T21:57:11.911Z,99588.78
2023-07-12T21:59:38.556Z,99593.75
2023-07-12T22:02:06.336Z,99590.78
2023-07-12T22:04:33.095Z,99594.19
2023-07-12T22:06:59.868Z,99606.97
2023-07-12T22:09:28.010Z,99605.66
2023-07-12T22:11:54.608Z,99602.91
2023-07-12T22:14:21.256Z,99608.03
2023-07-12T22:16:47.949Z,99610.66
2023-07-12T22:19:14.853Z,99605.88
2023-07-12T22:21:41.565Z,99607.91
2023-07-12T22:24:08.528Z,99612.34
2023-07-12T22:26:37.264Z,99620.31
2023-07-12T22:29:04.287Z,99619.47
2023-07-12T22:31:31.140Z,99617.38
2023-07-12T22:33:57.800Z,99620.47
2023-07-12T22:36:24.362Z,99627.00
2023-07-12T22:38:51.342Z,99626.47
2023-07-12T22:41:18.065Z,99625.91
2023-07-12T22:43:46.334Z,99630.31
2023-07-12T22:46:13.248Z,99621.00
2023-07-12T22:48:40.349Z,99625.25
2023-07-12T22:51:06.968Z,99624.41
2023-07-12T22:53:33.774Z,99625.03
2023-07-12T22:56:02.340Z,99628.28
2023-07-12T22:58:29.673Z,99630.38
2023-07-12T23:00:58.283Z,99627.03
2023-07-12T23:03:25.287Z,99639.34
2023-07-12T23:05:52.125Z,99629.09
2023-07-12T23:08:18.906Z,99630.28
2023-07-12T23:10:45.488Z,99634.63
2023-07-12T23:13:12.214Z,99636.25
2023-07-12T23:15:38.804Z,99643.09
2023-07-12T23:18:06.989Z,99639.31
2023-07-12T23:20:33.576Z,99644.69
2023-07-12T23:23:00.559Z,99643.25
2023-07-12T23:25:27.327Z,99640.44
2023-07-12T23:27:54.590Z,99650.50
2023-07-12T23:30:22.019Z,99645.94
2023-07-12T23:32:49.086Z,99657.44
2023-07-12T23:35:17.944Z,99657.78
2023-07-12T23:37:44.716Z,99658.25
2023-07-12T23:40:14.086Z,99655.06
2023-07-12T23:42:40.892Z,99663.16
2023-07-12T23:45:08.399Z,99660.03
2023-07-12T23:47:35.333Z,99663.53
2023-07-12T23:50:02.616Z,99674.41
2023-07-12T23:52:30.710Z,99670.97
2023-07-12T23:54:57.307Z,99672.22
2023-07-12T23:57:24.063Z,99664.25
2023-07-12T23:59:52.253Z,99674.28
